| time (UTC) | temp C | wind direction | speed KPH | gust KPH | rain 1hr cm | rain 24hr cm | rain mn cm | humidity % | barometer mb |
| 20260507182619 | 16 | 223 | 6.4 | 9.7 | 0.00 | 0.00 | 0.00 | 60 | 1019.4 |
| 20260507182103 | 16 | 215 | 4.8 | 9.7 | 0.00 | 0.00 | 0.00 | 60 | 1019.3 |
| 20260507181115 | 16 | 244 | 8.0 | 11.3 | 0.00 | 0.00 | 0.00 | 61 | 1019.4 |
| 20260507180604 | 16 | 189 | 8.0 | 11.3 | 0.00 | 0.00 | 0.00 | 61 | 1019.4 |
| 20260507180105 | 16 | 163 | 8.0 | 9.7 | 0.00 | 0.00 | 0.00 | 61 | 1019.3 |
| 20260507175604 | 16 | 203 | 8.0 | 11.3 | 0.00 | 0.00 | 0.00 | 61 | 1019.3 |
| 20260507174604 | 16 | 158 | 4.8 | 8.0 | 0.00 | 0.00 | 0.00 | 65 | 1019.4 |
| 20260507174106 | 16 | 270 | 4.8 | 8.0 | 0.00 | 0.00 | 0.00 | 65 | 1019.4 |
| 20260507173103 | 16 | 257 | 6.4 | 9.7 | 0.00 | 0.00 | 0.00 | 64 | 1019.4 |
| 20260507172104 | 16 | 277 | 4.8 | 8.0 | 0.00 | 0.00 | 0.00 | 67 | 1019.2 |
| 20260507171604 | 16 | 293 | 4.8 | 8.0 | 0.00 | 0.00 | 0.00 | 65 | 1019.2 |
| 20260507171104 | 17 | 152 | 4.8 | 9.7 | 0.00 | 0.00 | 0.00 | 63 | 1018.9 |
| 20260507170604 | 17 | 210 | 1.6 | 4.8 | 0.00 | 0.00 | 0.00 | 66 | 1018.9 |
| 20260507170104 | 17 | 135 | 1.6 | 4.8 | 0.00 | 0.00 | 0.00 | 68 | 1018.9 |
| 20260507165111 | 17 | 101 | 1.6 | 4.8 | 0.00 | 0.00 | 0.00 | 66 | 1018.9 |
| 20260507164604 | 17 | 112 | 3.2 | 3.2 | 0.00 | 0.00 | 0.00 | 67 | 1018.9 |
| 20260507164103 | 17 | 111 | 4.8 | 4.8 | 0.00 | 0.00 | 0.00 | 67 | 1018.9 |
| 20260507163603 | 17 | 114 | 4.8 | 4.8 | 0.00 | 0.00 | 0.00 | 67 | 1019.1 |
| 20260507163103 | 17 | 189 | 3.2 | 4.8 | 0.00 | 0.00 | 0.00 | 65 | 1019.1 |
| 20260507162104 | 18 | 103 | 3.2 | 4.8 | 0.00 | 0.00 | 0.00 | 59 | 1019.1 |
| 20260507161604 | 18 | 120 | 0.0 | 8.0 | 0.00 | 0.00 | 0.00 | 57 | 1019.1 |
| 20260507160104 | 18 | 123 | 6.4 | 9.7 | 0.00 | 0.00 | 0.00 | 52 | 1019.2 |
| 20260507155604 | 19 | 150 | 6.4 | 9.7 | 0.00 | 0.00 | 0.00 | 51 | 1019.2 |
| 20260507155105 | 19 | 113 | 6.4 | 9.7 | 0.00 | 0.00 | 0.00 | 51 | 1019.2 |
| 20260507154609 | 19 | 131 | 3.2 | 4.8 | 0.00 | 0.00 | 0.00 | 48 | 1019.3 |
| 20260507154106 | 19 | 150 | 4.8 | 9.7 | 0.00 | 0.00 | 0.00 | 49 | 1019.3 |
| 20260507153104 | 20 | 160 | 3.2 | 8.0 | 0.00 | 0.00 | 0.00 | 45 | 1019.4 |
| 20260507152604 | 20 | 178 | 3.2 | 4.8 | 0.00 | 0.00 | 0.00 | 45 | 1019.4 |
| 20260507152103 | 20 | 101 | 3.2 | 9.7 | 0.00 | 0.00 | 0.00 | 44 | 1019.3 |
| 20260507151604 | 20 | 180 | 3.2 | 11.3 | 0.00 | 0.00 | 0.00 | 42 | 1019.3 |
| 20260507145103 | 21 | 194 | 6.4 | 14.5 | 0.00 | 0.00 | 0.00 | 42 | 1019.3 |
| 20260507144604 | 21 | 187 | 6.4 | 9.7 | 0.00 | 0.00 | 0.00 | 40 | 1019.3 |
| 20260507144106 | 21 | 162 | 4.8 | 9.7 | 0.00 | 0.00 | 0.00 | 38 | 1019.3 |
| 20260507143104 | 21 | 112 | 6.4 | 9.7 | 0.00 | 0.00 | 0.00 | 39 | 1019.3 |
| 20260507142604 | 21 | 90 | 4.8 | 8.0 | 0.00 | 0.00 | 0.00 | 38 | 1019.3 |
| 20260507142104 | 21 | 136 | 6.4 | 11.3 | 0.00 | 0.00 | 0.00 | 39 | 1019.1 |
| 20260507141604 | 21 | 127 | 4.8 | 9.7 | 0.00 | 0.00 | 0.00 | 37 | 1019.1 |
| 20260507141104 | 21 | 200 | 4.8 | 14.5 | 0.00 | 0.00 | 0.00 | 36 | 1018.9 |
| 20260507140105 | 22 | 163 | 8.0 | 11.3 | 0.00 | 0.00 | 0.00 | 37 | 1018.8 |
| 20260507135604 | 22 | 37 | 8.0 | 12.9 | 0.00 | 0.00 | 0.00 | 38 | 1018.8 |
| 20260507135103 | 22 | 147 | 4.8 | 12.9 | 0.00 | 0.00 | 0.00 | 38 | 1018.8 |
| 20260507134103 | 22 | 122 | 9.7 | 16.1 | 0.00 | 0.00 | 0.00 | 41 | 1018.8 |
| 20260507133604 | 22 | 147 | 8.0 | 11.3 | 0.00 | 0.00 | 0.00 | 42 | 1018.7 |
| 20260507133111 | 22 | 135 | 9.7 | 12.9 | 0.00 | 0.00 | 0.00 | 42 | 1018.7 |
| 20260507132111 | 22 | 155 | 4.8 | 11.3 | 0.00 | 0.00 | 0.00 | 43 | 1018.8 |
| 20260507130604 | 21 | 137 | 8.0 | 16.1 | 0.00 | 0.00 | 0.00 | 49 | 1019.0 |
| 20260507130104 | 21 | 146 | 6.4 | 12.9 | 0.00 | 0.00 | 0.00 | 48 | 1019.1 |
| 20260507125606 | 21 | 133 | 9.7 | 12.9 | 0.00 | 0.00 | 0.00 | 47 | 1019.3 |
| 20260507125103 | 21 | 122 | 4.8 | 8.0 | 0.00 | 0.00 | 0.00 | 46 | 1019.3 |
| 20260507124104 | 21 | 149 | 9.7 | 14.5 | 0.00 | 0.00 | 0.00 | 45 | 1019.2 |
| 20260507123603 | 22 | 130 | 9.7 | 14.5 | 0.00 | 0.00 | 0.00 | 44 | 1019.3 |
| 20260507122111 | 23 | 121 | 11.3 | 16.1 | 0.00 | 0.00 | 0.00 | 43 | 1019.4 |
| 20260507121107 | 22 | 135 | 11.3 | 16.1 | 0.00 | 0.00 | 0.00 | 42 | 1019.3 |
| 20260507120603 | 22 | 134 | 11.3 | 16.1 | 0.00 | 0.00 | 0.00 | 42 | 1019.3 |
| 20260507120104 | 23 | 112 | 11.3 | 16.1 | 0.00 | 0.00 | 0.00 | 40 | 1019.4 |
| 20260507115607 | 23 | 170 | 8.0 | 12.9 | 0.00 | 0.00 | 0.00 | 37 | 1019.4 |
| 20260507115104 | 23 | 134 | 11.3 | 12.9 | 0.00 | 0.00 | 0.00 | 35 | 1019.4 |
| 20260507114604 | 23 | 96 | 9.7 | 16.1 | 0.00 | 0.00 | 0.00 | 35 | 1019.5 |
| 20260507114104 | 23 | 125 | 11.3 | 14.5 | 0.00 | 0.00 | 0.00 | 34 | 1019.5 |
| 20260507113604 | 23 | 128 | 14.5 | 24.1 | 0.00 | 0.00 | 0.00 | 34 | 1019.7 |
| 20260507112604 | 24 | 122 | 8.0 | 16.1 | 0.00 | 0.00 | 0.00 | 36 | 1019.7 |
| 20260507112103 | 23 | 127 | 11.3 | 16.1 | 0.00 | 0.00 | 0.00 | 36 | 1019.4 |
| 20260507111604 | 23 | 145 | 11.3 | 16.1 | 0.00 | 0.00 | 0.00 | 36 | 1019.4 |
| 20260507111103 | 23 | 113 | 14.5 | 22.5 | 0.00 | 0.00 | 0.00 | 52 | 1019.5 |
| 20260507110603 | 23 | 161 | 9.7 | 16.1 | 0.00 | 0.00 | 0.00 | 51 | 1019.5 |
| 20260507110104 | 23 | 143 | 12.9 | 16.1 | 0.00 | 0.00 | 0.00 | 58 | 1019.4 |
| 20260507105106 | 22 | 120 | 9.7 | 14.5 | 0.00 | 0.00 | 0.00 | 68 | 1019.4 |
| 20260507104604 | 22 | 114 | 12.9 | 19.3 | 0.00 | 0.00 | 0.00 | 66 | 1019.1 |
| 20260507104104 | 22 | 115 | 14.5 | 19.3 | 0.00 | 0.00 | 0.00 | 62 | 1019.1 |
| 20260507103604 | 22 | 136 | 9.7 | 16.1 | 0.00 | 0.00 | 0.00 | 59 | 1019.1 |
| 20260507103103 | 22 | 125 | 14.5 | 20.9 | 0.00 | 0.00 | 0.00 | 55 | 1019.1 |
| 20260507102620 | 22 | 135 | 9.7 | 16.1 | 0.00 | 0.00 | 0.00 | 61 | 1019.1 |
| 20260507101604 | 22 | 113 | 8.0 | 12.9 | 0.00 | 0.00 | 0.00 | 62 | 1019.3 |
| 20260507101104 | 21 | 120 | 8.0 | 11.3 | 0.00 | 0.00 | 0.00 | 72 | 1019.2 |
| 20260507100609 | 22 | 99 | 11.3 | 12.9 | 0.00 | 0.00 | 0.00 | 73 | 1019.2 |
| 20260507100104 | 21 | 122 | 9.7 | 16.1 | 0.00 | 0.00 | 0.00 | 75 | 1019.2 |
| 20260507095104 | 21 | 112 | 11.3 | 14.5 | 0.00 | 0.00 | 0.00 | 78 | 1019.2 |
| 20260507094604 | 21 | 67 | 9.7 | 12.9 | 0.00 | 0.00 | 0.00 | 79 | 1019.3 |
| 20260507094104 | 21 | 121 | 12.9 | 16.1 | 0.00 | 0.00 | 0.00 | 78 | 1019.3 |
| 20260507093604 | 21 | 112 | 9.7 | 12.9 | 0.00 | 0.00 | 0.00 | 79 | 1019.2 |
| 20260507093111 | 21 | 95 | 8.0 | 12.9 | 0.00 | 0.00 | 0.00 | 78 | 1019.2 |
| 20260507092603 | 21 | 125 | 9.7 | 12.9 | 0.00 | 0.00 | 0.00 | 77 | 1019.2 |
| 20260507092104 | 21 | 86 | 9.7 | 12.9 | 0.00 | 0.00 | 0.00 | 77 | 1019.1 |
| 20260507091603 | 21 | 111 | 4.8 | 9.7 | 0.00 | 0.00 | 0.00 | 76 | 1019.1 |
| 20260507091105 | 20 | 134 | 9.7 | 14.5 | 0.00 | 0.00 | 0.00 | 77 | 1019.1 |
| 20260507090604 | 20 | 128 | 11.3 | 16.1 | 0.00 | 0.00 | 0.00 | 75 | 1019.1 |
| 20260507090105 | 20 | 112 | 12.9 | 16.1 | 0.00 | 0.00 | 0.00 | 77 | 1019.1 |
| 20260507085103 | 20 | 95 | 9.7 | 14.5 | 0.00 | 0.00 | 0.00 | 75 | 1019.2 |
| 20260507084105 | 21 | 79 | 8.0 | 12.9 | 0.00 | 0.00 | 0.00 | 74 | 1019.2 |
| 20260507083604 | 20 | 123 | 9.7 | 14.5 | 0.00 | 0.00 | 0.00 | 74 | 1019.1 |
| 20260507083103 | 21 | 112 | 11.3 | 14.5 | 0.00 | 0.00 | 0.00 | 74 | 1019.1 |
| 20260507082604 | 21 | 112 | 11.3 | 14.5 | 0.00 | 0.00 | 0.00 | 73 | 1019.1 |
| 20260507082103 | 21 | 96 | 8.0 | 11.3 | 0.00 | 0.00 | 0.00 | 64 | 1019.1 |
| 20260507081604 | 21 | 112 | 9.7 | 12.9 | 0.00 | 0.00 | 0.00 | 63 | 1019.1 |
| 20260507081111 | 21 | 125 | 9.7 | 11.3 | 0.00 | 0.00 | 0.00 | 63 | 1019.0 |
| 20260507080603 | 21 | 125 | 4.8 | 9.7 | 0.00 | 0.00 | 0.00 | 62 | 1019.0 |
| 20260507080111 | 21 | 122 | 4.8 | 8.0 | 0.00 | 0.00 | 0.00 | 64 | 1019.0 |
| 20260507075619 | 21 | 130 | 8.0 | 12.9 | 0.00 | 0.00 | 0.00 | 60 | 1018.9 |
| 20260507075104 | 20 | 135 | 6.4 | 11.3 | 0.00 | 0.00 | 0.00 | 62 | 1018.9 |
| 20260507074103 | 20 | 112 | 9.7 | 12.9 | 0.00 | 0.00 | 0.00 | 63 | 1018.7 |
| 20260507073604 | 20 | 72 | 11.3 | 12.9 | 0.00 | 0.00 | 0.00 | 63 | 1018.7 |
| 20260507073104 | 21 | 122 | 9.7 | 14.5 | 0.00 | 0.00 | 0.00 | 61 | 1018.7 |
| 20260507072604 | 21 | 131 | 8.0 | 9.7 | 0.00 | 0.00 | 0.00 | 59 | 1018.7 |
| 20260507072104 | 21 | 121 | 9.7 | 12.9 | 0.00 | 0.00 | 0.00 | 59 | 1018.8 |
| 20260507070619 | 21 | 112 | 9.7 | 11.3 | 0.00 | 0.00 | 0.00 | 63 | 1018.9 |
| 20260507065103 | 21 | 119 | 8.0 | 9.7 | 0.00 | 0.00 | 0.00 | 66 | 1018.8 |
| 20260507064106 | 21 | 118 | 6.4 | 8.0 | 0.00 | 0.00 | 0.00 | 59 | 1018.8 |
| 20260507063606 | 20 | 141 | 3.2 | 9.7 | 0.00 | 0.00 | 0.00 | 62 | 1018.8 |
| 20260507063104 | 20 | 139 | 6.4 | 9.7 | 0.00 | 0.00 | 0.00 | 69 | 1018.8 |
| 20260507062104 | 19 | 123 | 8.0 | 11.3 | 0.00 | 0.00 | 0.00 | 65 | 1018.7 |
| 20260507061603 | 19 | 110 | 8.0 | 9.7 | 0.00 | 0.00 | 0.00 | 68 | 1018.7 |
| 20260507060603 | 19 | 135 | 11.3 | 12.9 | 0.00 | 0.00 | 0.00 | 63 | 1018.5 |
| 20260507055103 | 21 | 90 | 4.8 | 8.0 | 0.00 | 0.00 | 0.00 | 53 | 1018.2 |
| 20260507054604 | 20 | 93 | 4.8 | 9.7 | 0.00 | 0.00 | 0.00 | 53 | 1018.1 |
| 20260507054104 | 21 | 116 | 4.8 | 9.7 | 0.00 | 0.00 | 0.00 | 53 | 1018.1 |
| 20260507053611 | 21 | 89 | 4.8 | 4.8 | 0.00 | 0.00 | 0.00 | 51 | 1018.1 |
| 20260507053104 | 21 | 103 | 4.8 | 8.0 | 0.00 | 0.00 | 0.00 | 50 | 1018.1 |
| 20260507052105 | 21 | 115 | 1.6 | 3.2 | 0.00 | 0.00 | 0.00 | 51 | 1018.0 |
| 20260507051604 | 20 | 112 | 3.2 | 4.8 | 0.00 | 0.00 | 0.00 | 51 | 1018.0 |
| 20260507051104 | 21 | 100 | 4.8 | 4.8 | 0.00 | 0.00 | 0.00 | 52 | 1018.1 |
| 20260507050606 | 22 | 16 | 4.8 | 4.8 | 0.00 | 0.00 | 0.00 | 50 | 1018.1 |
| 20260507050104 | 20 | 110 | 0.0 | 0.0 | 0.00 | 0.00 | 0.00 | 57 | 1018.0 |
| 20260507045605 | 20 | 90 | 0.0 | 0.0 | 0.00 | 0.00 | 0.00 | 56 | 1017.9 |
| 20260507044611 | 20 | 112 | 0.0 | 0.0 | 0.00 | 0.00 | 0.00 | 55 | 1017.8 |
| 20260507044106 | 19 | 112 | 1.6 | 3.2 | 0.00 | 0.00 | 0.00 | 59 | 1017.8 |
| 20260507043604 | 19 | 76 | 1.6 | 3.2 | 0.00 | 0.00 | 0.00 | 58 | 1017.8 |
| 20260507042604 | 18 | 270 | 6.4 | 8.0 | 0.00 | 0.00 | 0.00 | 54 | 1017.8 |
| 20260507042103 | 18 | 238 | 8.0 | 9.7 | 0.00 | 0.00 | 0.00 | 55 | 1017.9 |
| 20260507041107 | 17 | 270 | 6.4 | 8.0 | 0.00 | 0.00 | 0.00 | 57 | 1017.8 |
| 20260507040104 | 17 | 240 | 6.4 | 8.0 | 0.00 | 0.00 | 0.00 | 60 | 1017.8 |
| 20260507035603 | 16 | 264 | 8.0 | 9.7 | 0.00 | 0.00 | 0.00 | 60 | 1017.8 |
| 20260507034603 | 16 | 248 | 8.0 | 9.7 | 0.00 | 0.00 | 0.00 | 62 | 1017.8 |
| 20260507034104 | 15 | 255 | 8.0 | 9.7 | 0.00 | 0.00 | 0.00 | 64 | 1017.8 |
| 20260507033104 | 15 | 270 | 8.0 | 9.7 | 0.00 | 0.00 | 0.00 | 67 | 1017.6 |
| 20260507032603 | 15 | 269 | 8.0 | 9.7 | 0.00 | 0.00 | 0.00 | 68 | 1017.6 |
| 20260507032104 | 15 | 270 | 6.4 | 9.7 | 0.00 | 0.00 | 0.00 | 68 | 1017.7 |
| 20260507031604 | 15 | 270 | 8.0 | 9.7 | 0.00 | 0.00 | 0.00 | 69 | 1017.7 |
| 20260507031104 | 14 | 270 | 8.0 | 9.7 | 0.00 | 0.00 | 0.00 | 71 | 1017.6 |
| 20260507030104 | 14 | 270 | 8.0 | 11.3 | 0.00 | 0.00 | 0.00 | 72 | 1017.6 |
| 20260507025104 | 13 | 252 | 8.0 | 11.3 | 0.00 | 0.00 | 0.00 | 78 | 1017.5 |
| 20260507024603 | 13 | 275 | 9.7 | 9.7 | 0.00 | 0.00 | 0.00 | 82 | 1017.6 |
| 20260507024104 | 13 | 270 | 8.0 | 9.7 | 0.00 | 0.00 | 0.00 | 82 | 1017.6 |
| 20260507023604 | 13 | 270 | 8.0 | 9.7 | 0.00 | 0.00 | 0.00 | 82 | 1017.5 |
| 20260507023104 | 13 | 263 | 8.0 | 11.3 | 0.00 | 0.00 | 0.00 | 81 | 1017.5 |
| 20260507022603 | 13 | 265 | 9.7 | 11.3 | 0.00 | 0.00 | 0.00 | 81 | 1017.5 |
| 20260507021604 | 13 | 270 | 9.7 | 9.7 | 0.00 | 0.00 | 0.00 | 78 | 1017.6 |
| 20260507021104 | 14 | 270 | 6.4 | 9.7 | 0.00 | 0.00 | 0.00 | 75 | 1017.5 |
| 20260507020603 | 14 | 270 | 6.4 | 9.7 | 0.00 | 0.00 | 0.00 | 73 | 1017.5 |
| 20260507020104 | 15 | 270 | 8.0 | 11.3 | 0.00 | 0.00 | 0.00 | 72 | 1017.4 |
| 20260507015603 | 15 | 258 | 9.7 | 9.7 | 0.00 | 0.00 | 0.00 | 67 | 1017.4 |
| 20260507015104 | 15 | 255 | 8.0 | 9.7 | 0.00 | 0.00 | 0.00 | 65 | 1017.4 |
| 20260507014603 | 15 | 248 | 9.7 | 9.7 | 0.00 | 0.00 | 0.00 | 64 | 1017.1 |
| 20260507014104 | 15 | 265 | 8.0 | 9.7 | 0.00 | 0.00 | 0.00 | 65 | 1017.1 |
| 20260507013603 | 14 | 270 | 1.6 | 3.2 | 0.00 | 0.00 | 0.00 | 68 | 1017.0 |
| 20260507013104 | 14 | 270 | 0.0 | 3.2 | 0.00 | 0.00 | 0.00 | 67 | 1017.0 |
| 20260507012603 | 14 | 271 | 3.2 | 3.2 | 0.00 | 0.00 | 0.00 | 67 | 1017.0 |
| 20260507012103 | 13 | 292 | 0.0 | 0.0 | 0.00 | 0.00 | 0.00 | 69 | 1016.8 |
| 20260507011604 | 13 | 315 | 0.0 | 0.0 | 0.00 | 0.00 | 0.00 | 70 | 1016.8 |
| 20260507010604 | 13 | 202 | 0.0 | 0.0 | 0.00 | 0.00 | 0.00 | 75 | 1017.0 |
| 20260507005605 | 13 | 202 | 0.0 | 0.0 | 0.00 | 0.00 | 0.00 | 80 | 1016.9 |
| 20260507005103 | 13 | 202 | 0.0 | 0.0 | 0.00 | 0.00 | 0.00 | 79 | 1016.9 |
| 20260507004605 | 13 | 202 | 3.2 | 3.2 | 0.00 | 0.00 | 0.00 | 82 | 1016.9 |
| 20260507004104 | 13 | 202 | 0.0 | 0.0 | 0.00 | 0.00 | 0.00 | 79 | 1016.9 |
| 20260507003603 | 13 | 202 | 0.0 | 0.0 | 0.00 | 0.00 | 0.00 | 77 | 1017.0 |
| 20260507003104 | 14 | 180 | 0.0 | 0.0 | 0.00 | 0.00 | 0.00 | 70 | 1017.0 |
| 20260507002604 | 14 | 180 | 0.0 | 3.2 | 0.00 | 0.00 | 0.00 | 69 | 1017.0 |
| 20260507001611 | 15 | 158 | 0.0 | 3.2 | 0.00 | 0.00 | 0.00 | 63 | 1017.2 |
| 20260507001104 | 15 | 22 | 0.0 | 0.0 | 0.00 | 0.00 | 0.00 | 61 | 1017.2 |
| 20260507000604 | 15 | 158 | 0.0 | 0.0 | 0.00 | 0.00 | 0.00 | 59 | 1017.2 |
| 20260507000104 | 16 | 112 | 0.0 | 1.6 | 0.00 | 0.00 | 0.00 | 58 | 1017.3 |
| 20260506235604 | 16 | 112 | 3.2 | 4.8 | 0.00 | 0.00 | 0.00 | 57 | 1017.3 |
| 20260506235106 | 16 | 270 | 4.8 | 8.0 | 0.00 | 0.00 | 0.00 | 57 | 1017.3 |
| 20260506234604 | 16 | 270 | 8.0 | 9.7 | 0.00 | 0.00 | 0.00 | 57 | 1017.4 |
| 20260506233604 | 16 | 258 | 9.7 | 9.7 | 0.00 | 0.00 | 0.00 | 58 | 1017.4 |
| 20260506233104 | 16 | 268 | 8.0 | 9.7 | 0.00 | 0.00 | 0.00 | 59 | 1017.4 |
| 20260506232604 | 16 | 248 | 8.0 | 11.3 | 0.00 | 0.00 | 0.00 | 61 | 1017.4 |
| 20260506232105 | 16 | 258 | 8.0 | 9.7 | 0.00 | 0.00 | 0.00 | 61 | 1017.5 |
| 20260506231604 | 16 | 270 | 8.0 | 9.7 | 0.00 | 0.00 | 0.00 | 61 | 1017.5 |
| 20260506230604 | 16 | 270 | 8.0 | 8.0 | 0.00 | 0.00 | 0.00 | 59 | 1017.5 |
| 20260506230104 | 16 | 252 | 8.0 | 9.7 | 0.00 | 0.00 | 0.00 | 58 | 1017.6 |
| 20260506225604 | 16 | 257 | 4.8 | 8.0 | 0.00 | 0.00 | 0.00 | 57 | 1017.6 |
| 20260506225104 | 15 | 270 | 3.2 | 3.2 | 0.00 | 0.00 | 0.00 | 57 | 1017.6 |
| 20260506224104 | 16 | 270 | 0.0 | 0.0 | 0.00 | 0.00 | 0.00 | 56 | 1017.7 |
| 20260506223603 | 16 | 270 | 0.0 | 0.0 | 0.00 | 0.00 | 0.00 | 56 | 1017.8 |
| 20260506223105 | 16 | 270 | 0.0 | 0.0 | 0.00 | 0.00 | 0.00 | 56 | 1017.8 |
| 20260506222604 | 16 | 270 | 0.0 | 0.0 | 0.00 | 0.00 | 0.00 | 55 | 1017.8 |
| 20260506222104 | 16 | 315 | 0.0 | 0.0 | 0.00 | 0.00 | 0.00 | 55 | 1017.8 |
| 20260506221106 | 16 | 270 | 0.0 | 0.0 | 0.00 | 0.00 | 0.00 | 55 | 1017.8 |
| 20260506220604 | 16 | 270 | 0.0 | 3.2 | 0.00 | 0.00 | 0.00 | 55 | 1017.8 |
| 20260506220104 | 16 | 270 | 3.2 | 8.0 | 0.00 | 0.00 | 0.00 | 54 | 1017.8 |
| 20260506215607 | 16 | 270 | 6.4 | 8.0 | 0.00 | 0.00 | 0.00 | 55 | 1017.8 |
| 20260506215104 | 16 | 270 | 8.0 | 9.7 | 0.00 | 0.00 | 0.00 | 59 | 1017.8 |
| 20260506214604 | 16 | 270 | 8.0 | 9.7 | 0.00 | 0.00 | 0.00 | 59 | 1018.0 |
| 20260506214104 | 16 | 270 | 9.7 | 9.7 | 0.00 | 0.00 | 0.00 | 60 | 1018.0 |
| 20260506213604 | 16 | 270 | 9.7 | 9.7 | 0.00 | 0.00 | 0.00 | 60 | 1018.1 |
| 20260506213104 | 16 | 265 | 8.0 | 11.3 | 0.00 | 0.00 | 0.00 | 60 | 1018.1 |
| 20260506212104 | 16 | 270 | 8.0 | 9.7 | 0.00 | 0.00 | 0.00 | 59 | 1018.2 |
| 20260506211104 | 16 | 248 | 8.0 | 9.7 | 0.00 | 0.00 | 0.00 | 59 | 1018.2 |
| 20260506210603 | 16 | 248 | 8.0 | 9.7 | 0.00 | 0.00 | 0.00 | 59 | 1018.2 |
| 20260506210106 | 16 | 248 | 8.0 | 8.0 | 0.00 | 0.00 | 0.00 | 59 | 1018.2 |
| 20260506205104 | 16 | 248 | 4.8 | 8.0 | 0.00 | 0.00 | 0.00 | 58 | 1018.3 |
| 20260506204604 | 16 | 244 | 4.8 | 9.7 | 0.00 | 0.00 | 0.00 | 57 | 1018.3 |
| 20260506204104 | 16 | 270 | 8.0 | 9.7 | 0.00 | 0.00 | 0.00 | 56 | 1018.3 |
| 20260506203105 | 16 | 270 | 4.8 | 8.0 | 0.00 | 0.00 | 0.00 | 56 | 1018.2 |
| 20260506202104 | 16 | 270 | 4.8 | 4.8 | 0.00 | 0.00 | 0.00 | 56 | 1018.1 |
| 20260506201104 | 16 | 270 | 3.2 | 3.2 | 0.00 | 0.00 | 0.00 | 57 | 1018.1 |
| 20260506200604 | 16 | 296 | 0.0 | 3.2 | 0.00 | 0.00 | 0.00 | 57 | 1018.1 |
| 20260506200104 | 16 | 315 | 0.0 | 0.0 | 0.00 | 0.00 | 0.00 | 58 | 1018.1 |
| 20260506195620 | 16 | 270 | 0.0 | 0.0 | 0.00 | 0.00 | 0.00 | 58 | 1018.1 |
| 20260506195104 | 16 | 225 | 0.0 | 0.0 | 0.00 | 0.00 | 0.00 | 58 | 1018.1 |
| 20260506194105 | 16 | 256 | 0.0 | 0.0 | 0.00 | 0.00 | 0.00 | 57 | 1017.9 |
| 20260506193606 | 17 | 202 | 0.0 | 0.0 | 0.00 | 0.00 | 0.00 | 56 | 1017.8 |
| 20260506193104 | 16 | 323 | 0.0 | 0.0 | 0.00 | 0.00 | 0.00 | 56 | 1017.8 |
| 20260506192603 | 17 | 270 | 0.0 | 0.0 | 0.00 | 0.00 | 0.00 | 56 | 1017.8 |
| 20260506192104 | 17 | 270 | 0.0 | 0.0 | 0.00 | 0.00 | 0.00 | 55 | 1017.8 |
| 20260506191103 | 17 | 255 | 3.2 | 4.8 | 0.00 | 0.00 | 0.00 | 54 | 1017.6 |
| 20260506190619 | 17 | 248 | 4.8 | 4.8 | 0.00 | 0.00 | 0.00 | 56 | 1017.6 |
| 20260506190104 | 17 | 248 | 4.8 | 4.8 | 0.00 | 0.00 | 0.00 | 56 | 1017.6 |
| 20260506185604 | 17 | 248 | 4.8 | 4.8 | 0.00 | 0.00 | 0.00 | 56 | 1017.6 |
| 20260506185104 | 17 | 248 | 4.8 | 4.8 | 0.00 | 0.00 | 0.00 | 56 | 1017.6 |
| 20260506184619 | 17 | 248 | 4.8 | 4.8 | 0.00 | 0.00 | 0.00 | 56 | 1017.5 |
| 20260506184104 | 17 | 248 | 4.8 | 8.0 | 0.00 | 0.00 | 0.00 | 57 | 1017.5 |
| 20260506183607 | 17 | 248 | 3.2 | 4.8 | 0.00 | 0.00 | 0.00 | 57 | 1017.3 |
| 20260506183103 | 17 | 248 | 3.2 | 3.2 | 0.00 | 0.00 | 0.00 | 56 | 1017.3 |